Time;durP1;ratioP1;P1;durP2;ratioP2;P2;SDS_P1;SDS_P2;PMS_P1;PMS_P2;Temp;Humidity;BMP_temperature;BMP_pressure;BME280_temperature;BME280_humidity;BME280_pressure;Samples;Min_cycle;Max_cycle;Signal;HPM_P1;HPM_P2
2023/10/29 00:01:46;;;;;;;21.40;20.30;;;;;;;;;;5055798;28;20432;-89
2023/10/29 00:04:13;;;;;;;21.73;20.60;;;;;;;;;;5055667;28;20465;-90
2023/10/29 00:06:40;;;;;;;21.37;19.97;;;;;;;;;;5054733;28;20439;-89
2023/10/29 00:09:07;;;;;;;21.07;19.77;;;;;;;;;;5055755;28;20442;-89
2023/10/29 00:11:34;;;;;;;20.83;19.80;;;;;;;;;;5055156;28;20458;-89
2023/10/29 00:14:01;;;;;;;22.03;20.90;;;;;;;;;;5054978;28;20462;-90
2023/10/29 00:16:28;;;;;;;22.17;20.87;;;;;;;;;;5055046;28;20426;-90
2023/10/29 00:18:57;;;;;;;20.73;19.83;;;;;;;;;;5055162;28;20462;-89
2023/10/29 00:21:24;;;;;;;20.43;19.43;;;;;;;;;;5055260;28;20478;-89
2023/10/29 00:23:51;;;;;;;21.17;20.17;;;;;;;;;;5054844;28;20463;-90
2023/10/29 00:26:19;;;;;;;20.50;19.60;;;;;;;;;;5055251;28;20935;-89
2023/10/29 00:28:46;;;;;;;20.57;19.50;;;;;;;;;;5055190;28;20485;-91
2023/10/29 00:31:13;;;;;;;20.30;19.20;;;;;;;;;;5055361;28;20803;-90
2023/10/29 00:33:40;;;;;;;21.10;20.10;;;;;;;;;;5055226;28;20437;-90
2023/10/29 00:36:10;;;;;;;20.93;19.83;;;;;;;;;;5054891;28;20438;-90
2023/10/29 00:38:37;;;;;;;20.23;19.33;;;;;;;;;;5055324;28;20830;-90
2023/10/29 00:41:04;;;;;;;21.53;20.50;;;;;;;;;;5054679;28;20474;-90
2023/10/29 00:46:06;;;;;;;21.13;20.03;;;;;;;;;;5054634;28;20409;-90
2023/10/29 00:48:41;;;;;;;21.10;20.00;;;;;;;;;;5054959;28;20474;-90
2023/10/29 00:51:09;;;;;;;21.53;20.43;;;;;;;;;;5054927;28;20507;-88
2023/10/29 00:53:36;;;;;;;20.90;20.00;;;;;;;;;;5054707;28;20454;-89
2023/10/29 00:56:04;;;;;;;21.83;20.73;;;;;;;;;;5054348;28;20431;-90
2023/10/29 00:58:32;;;;;;;21.60;20.40;;;;;;;;;;5054536;28;20982;-91
2023/10/29 01:00:59;;;;;;;21.27;20.27;;;;;;;;;;5054780;28;20467;-90
2023/10/29 01:03:26;;;;;;;21.53;20.53;;;;;;;;;;5054484;28;21263;-89
2023/10/29 01:05:53;;;;;;;21.83;20.63;;;;;;;;;;5054198;28;20478;-89
2023/10/29 01:08:22;;;;;;;20.90;19.87;;;;;;;;;;5054299;28;20558;-90
2023/10/29 01:10:51;;;;;;;20.87;19.83;;;;;;;;;;5054235;28;20455;-89
2023/10/29 01:13:18;;;;;;;20.67;19.67;;;;;;;;;;5054243;28;20449;-90
2023/10/29 01:15:46;;;;;;;21.63;20.53;;;;;;;;;;5053491;28;20474;-89
2023/10/29 01:18:13;;;;;;;21.00;20.00;;;;;;;;;;5053531;28;20959;-89
2023/10/29 01:20:40;;;;;;;21.60;20.60;;;;;;;;;;5053777;28;20479;-90
2023/10/29 01:23:07;;;;;;;20.70;19.80;;;;;;;;;;5054141;28;20435;-90
2023/10/29 01:25:35;;;;;;;21.20;20.20;;;;;;;;;;5054403;28;20521;-90
2023/10/29 01:28:03;;;;;;;22.30;21.20;;;;;;;;;;5054147;28;20429;-90
2023/10/29 01:30:30;;;;;;;22.17;21.07;;;;;;;;;;5054061;28;20468;-90
2023/10/29 01:32:59;;;;;;;20.93;19.80;;;;;;;;;;5053806;28;20426;-90
2023/10/29 01:35:26;;;;;;;21.20;20.07;;;;;;;;;;5053411;28;20451;-89
2023/10/29 01:37:53;;;;;;;20.90;19.90;;;;;;;;;;5053749;28;20863;-91
2023/10/29 01:40:21;;;;;;;21.60;20.47;;;;;;;;;;5053777;28;20477;-89
2023/10/29 01:42:49;;;;;;;21.10;19.90;;;;;;;;;;5053851;28;20434;-89
2023/10/29 01:45:17;;;;;;;22.47;21.37;;;;;;;;;;5053867;28;20458;-91
2023/10/29 01:47:44;;;;;;;20.53;19.50;;;;;;;;;;5054009;28;20524;-89
2023/10/29 01:50:12;;;;;;;21.27;20.10;;;;;;;;;;5053858;28;20555;-90
2023/10/29 01:52:39;;;;;;;20.60;19.60;;;;;;;;;;5054424;28;20950;-89
2023/10/29 01:55:07;;;;;;;21.27;20.23;;;;;;;;;;5053429;28;20479;-89
2023/10/29 01:57:35;;;;;;;21.50;20.50;;;;;;;;;;5053905;28;20455;-89
2023/10/29 02:00:05;;;;;;;20.80;19.90;;;;;;;;;;5053501;28;20470;-90
2023/10/29 02:02:32;;;;;;;20.50;19.53;;;;;;;;;;5053650;28;20924;-89
2023/10/29 02:05:00;;;;;;;20.87;19.87;;;;;;;;;;5053679;28;20461;-90
2023/10/29 02:07:27;;;;;;;20.23;19.23;;;;;;;;;;5052904;28;20502;-90
2023/10/29 02:09:54;;;;;;;21.00;20.00;;;;;;;;;;5053259;28;20954;-90
2023/10/29 02:12:21;;;;;;;20.17;19.27;;;;;;;;;;5054079;28;20534;-90
2023/10/29 02:14:48;;;;;;;21.33;20.23;;;;;;;;;;5053851;28;20457;-89
2023/10/29 02:17:16;;;;;;;21.03;20.03;;;;;;;;;;5053894;28;20474;-89
2023/10/29 02:19:43;;;;;;;21.17;20.27;;;;;;;;;;5053748;28;20457;-90
2023/10/29 02:22:12;;;;;;;21.67;20.73;;;;;;;;;;5053798;28;20421;-89
2023/10/29 02:24:39;;;;;;;21.37;20.27;;;;;;;;;;5053466;28;20439;-90
2023/10/29 02:27:06;;;;;;;21.80;20.70;;;;;;;;;;5053882;28;20830;-90
2023/10/29 02:29:33;;;;;;;21.03;20.03;;;;;;;;;;5053592;28;20439;-90
2023/10/29 02:32:01;;;;;;;21.03;20.00;;;;;;;;;;5057763;28;20962;-89
2023/10/29 02:34:28;;;;;;;20.97;20.07;;;;;;;;;;5057767;28;20446;-90
2023/10/29 02:36:55;;;;;;;21.60;20.60;;;;;;;;;;5057918;28;20470;-90
2023/10/29 02:39:23;;;;;;;20.47;19.53;;;;;;;;;;5057378;28;20446;-90
2023/10/29 02:41:50;;;;;;;21.10;19.90;;;;;;;;;;5057778;28;20474;-89
2023/10/29 02:44:17;;;;;;;21.00;20.10;;;;;;;;;;5057138;28;20449;-91
2023/10/29 02:46:44;;;;;;;21.80;20.80;;;;;;;;;;5057471;28;20475;-89
2023/10/29 02:49:12;;;;;;;21.00;20.00;;;;;;;;;;5057331;28;20435;-89
2023/10/29 02:51:39;;;;;;;20.27;19.33;;;;;;;;;;5057789;28;20443;-89
2023/10/29 02:54:06;;;;;;;21.53;20.33;;;;;;;;;;5057063;28;20438;-90
2023/10/29 02:56:35;;;;;;;20.27;19.27;;;;;;;;;;5056969;28;20439;-90
2023/10/29 02:59:03;;;;;;;20.97;20.00;;;;;;;;;;5057142;28;21351;-89
2023/10/29 03:01:30;;;;;;;21.40;20.30;;;;;;;;;;5056979;28;20486;-90
2023/10/29 03:03:57;;;;;;;20.73;19.83;;;;;;;;;;5056744;28;20435;-89
2023/10/29 03:06:24;;;;;;;21.50;20.30;;;;;;;;;;5056560;28;20440;-90
2023/10/29 03:08:51;;;;;;;20.73;19.73;;;;;;;;;;5057333;28;21072;-89
2023/10/29 03:11:18;;;;;;;20.57;19.43;;;;;;;;;;5056125;28;20458;-89
2023/10/29 03:13:47;;;;;;;20.03;19.10;;;;;;;;;;5056365;28;20447;-90
2023/10/29 03:16:15;;;;;;;20.30;19.40;;;;;;;;;;5056629;28;20458;-90
2023/10/29 03:18:42;;;;;;;19.20;18.33;;;;;;;;;;5056883;28;20470;-90
2023/10/29 03:21:09;;;;;;;20.10;19.20;;;;;;;;;;5057143;28;20485;-90
2023/10/29 03:23:36;;;;;;;19.50;18.60;;;;;;;;;;5057085;28;20443;-89
2023/10/29 03:26:03;;;;;;;19.77;18.77;;;;;;;;;;5056420;28;20454;-91
2023/10/29 03:28:37;;;;;;;20.90;19.63;;;;;;;;;;5056852;28;20497;-90
2023/10/29 03:31:12;;;;;;;18.97;18.17;;;;;;;;;;5056888;28;20454;-89
2023/10/29 03:33:39;;;;;;;20.00;18.87;;;;;;;;;;5056230;28;20394;-89
2023/10/29 03:36:06;;;;;;;19.20;18.20;;;;;;;;;;5056362;28;20501;-90
2023/10/29 03:38:34;;;;;;;19.13;18.23;;;;;;;;;;5056458;28;20478;-86
2023/10/29 03:41:01;;;;;;;19.07;18.07;;;;;;;;;;5056548;28;20493;-90
2023/10/29 03:43:28;;;;;;;19.70;18.70;;;;;;;;;;5055650;28;20461;-90
2023/10/29 03:45:55;;;;;;;19.27;18.40;;;;;;;;;;5056443;28;20462;-89
2023/10/29 03:48:24;;;;;;;19.73;18.73;;;;;;;;;;5056046;28;20458;-89
2023/10/29 03:50:51;;;;;;;18.70;17.90;;;;;;;;;;5055576;28;20439;-91
2023/10/29 03:53:19;;;;;;;19.17;18.27;;;;;;;;;;5055907;28;20774;-90
2023/10/29 03:55:46;;;;;;;18.80;17.93;;;;;;;;;;5055701;28;20450;-89
2023/10/29 03:58:13;;;;;;;18.50;17.70;;;;;;;;;;5056147;28;20474;-90
2023/10/29 04:00:41;;;;;;;19.00;18.13;;;;;;;;;;5056038;28;20478;-90
2023/10/29 04:03:08;;;;;;;19.17;18.37;;;;;;;;;;5056264;28;20450;-91
2023/10/29 04:05:36;;;;;;;18.23;17.43;;;;;;;;;;5055760;28;20438;-90
2023/10/29 04:08:04;;;;;;;18.70;17.90;;;;;;;;;;5055983;28;20467;-90
2023/10/29 04:10:31;;;;;;;19.20;18.30;;;;;;;;;;5055281;28;20451;-90
2023/10/29 04:12:58;;;;;;;18.20;17.20;;;;;;;;;;5055964;28;20450;-90
2023/10/29 04:15:25;;;;;;;18.57;17.67;;;;;;;;;;5055429;28;20443;-90
2023/10/29 04:17:53;;;;;;;17.83;16.90;;;;;;;;;;5055736;28;20477;-90
2023/10/29 04:20:20;;;;;;;18.33;17.53;;;;;;;;;;5055132;28;20445;-91
2023/10/29 04:22:48;;;;;;;19.33;18.33;;;;;;;;;;5055392;28;20553;-90
2023/10/29 04:25:15;;;;;;;18.57;17.67;;;;;;;;;;5055102;28;20446;-90
2023/10/29 04:27:42;;;;;;;18.53;17.63;;;;;;;;;;5055674;28;20477;-90
2023/10/29 04:30:10;;;;;;;19.47;18.37;;;;;;;;;;5055423;28;20581;-90
2023/10/29 04:32:37;;;;;;;18.53;17.67;;;;;;;;;;5055381;28;20445;-89
2023/10/29 04:35:05;;;;;;;20.40;19.10;;;;;;;;;;5054992;28;20507;-91
2023/10/29 04:37:32;;;;;;;19.20;18.40;;;;;;;;;;5055187;28;20596;-90
2023/10/29 04:40:01;;;;;;;19.50;18.60;;;;;;;;;;5054871;28;20461;-90
2023/10/29 04:42:28;;;;;;;19.13;18.13;;;;;;;;;;5055078;28;20502;-90
2023/10/29 04:44:55;;;;;;;19.90;18.80;;;;;;;;;;5054787;28;20454;-89
2023/10/29 04:47:22;;;;;;;20.10;19.07;;;;;;;;;;5054754;28;20459;-90
2023/10/29 04:49:49;;;;;;;19.20;18.30;;;;;;;;;;5054833;28;20454;-89
2023/10/29 04:52:16;;;;;;;18.70;17.70;;;;;;;;;;5054516;28;21196;-89
2023/10/29 04:54:43;;;;;;;18.63;17.83;;;;;;;;;;5052199;28;20553;-90
2023/10/29 04:57:12;;;;;;;18.80;17.90;;;;;;;;;;5054565;28;20524;-91
2023/10/29 04:59:39;;;;;;;18.10;17.20;;;;;;;;;;5054698;28;20439;-89
2023/10/29 05:02:06;;;;;;;19.27;18.47;;;;;;;;;;5054576;28;20461;-89
2023/10/29 05:04:33;;;;;;;18.53;17.73;;;;;;;;;;5054217;28;20420;-89
2023/10/29 05:07:00;;;;;;;19.17;18.17;;;;;;;;;;5054691;28;20834;-90
2023/10/29 05:09:27;;;;;;;18.70;17.87;;;;;;;;;;5053985;28;20529;-90
2023/10/29 05:11:54;;;;;;;18.43;17.63;;;;;;;;;;5053870;28;20537;-90
2023/10/29 05:14:23;;;;;;;19.30;18.37;;;;;;;;;;5054008;28;20436;-89
2023/10/29 05:16:51;;;;;;;19.30;18.33;;;;;;;;;;5054104;28;20433;-90
2023/10/29 05:19:18;;;;;;;19.60;18.63;;;;;;;;;;5054081;28;20457;-89
2023/10/29 05:21:45;;;;;;;18.77;17.87;;;;;;;;;;5054106;28;20474;-90
2023/10/29 05:24:12;;;;;;;18.83;17.93;;;;;;;;;;5053960;28;20526;-89
2023/10/29 05:26:39;;;;;;;18.77;17.97;;;;;;;;;;5054186;28;20454;-90
2023/10/29 05:29:07;;;;;;;19.17;18.17;;;;;;;;;;5054254;28;20436;-90
2023/10/29 05:31:35;;;;;;;18.50;17.70;;;;;;;;;;5054247;28;20457;-89
2023/10/29 05:34:02;;;;;;;18.10;17.30;;;;;;;;;;5053779;28;20462;-89
2023/10/29 05:36:29;;;;;;;19.33;18.40;;;;;;;;;;5054098;28;20435;-90
2023/10/29 05:38:56;;;;;;;18.33;17.43;;;;;;;;;;5053986;28;20509;-89
2023/10/29 05:41:23;;;;;;;19.30;18.20;;;;;;;;;;5053567;28;20481;-89
2023/10/29 05:43:51;;;;;;;19.60;18.60;;;;;;;;;;5053863;28;20946;-89
2023/10/29 05:46:22;;;;;;;19.07;18.20;;;;;;;;;;5053861;28;20500;-89
2023/10/29 05:48:50;;;;;;;18.37;17.57;;;;;;;;;;5053529;28;20565;-89
2023/10/29 05:51:18;;;;;;;19.10;18.23;;;;;;;;;;5053509;28;20446;-90
2023/10/29 05:53:46;;;;;;;20.30;19.20;;;;;;;;;;5053086;28;20948;-90
2023/10/29 05:56:14;;;;;;;18.43;17.53;;;;;;;;;;5053320;28;20813;-89
2023/10/29 05:58:41;;;;;;;18.10;17.20;;;;;;;;;;5053403;28;20472;-90
2023/10/29 06:01:08;;;;;;;18.27;17.47;;;;;;;;;;5053094;28;20803;-89
2023/10/29 06:03:35;;;;;;;19.47;18.60;;;;;;;;;;5053477;28;20485;-90
2023/10/29 06:06:04;;;;;;;17.63;16.93;;;;;;;;;;5053067;28;20446;-90
2023/10/29 06:08:31;;;;;;;18.70;17.80;;;;;;;;;;5053349;28;20466;-90
2023/10/29 06:10:59;;;;;;;18.43;17.60;;;;;;;;;;5053448;28;20445;-90
2023/10/29 06:13:26;;;;;;;18.93;18.03;;;;;;;;;;5054157;28;20442;-91
2023/10/29 06:15:53;;;;;;;17.73;16.83;;;;;;;;;;5054370;28;20439;-89
2023/10/29 06:18:21;;;;;;;18.00;17.30;;;;;;;;;;5053153;28;20434;-90
2023/10/29 06:20:48;;;;;;;17.97;17.27;;;;;;;;;;5053497;28;20450;-90
2023/10/29 06:23:16;;;;;;;17.80;17.00;;;;;;;;;;5052714;28;21168;-90
2023/10/29 06:25:43;;;;;;;18.57;17.77;;;;;;;;;;5053010;28;20512;-89
2023/10/29 06:28:10;;;;;;;18.17;17.37;;;;;;;;;;5053233;28;21021;-90
2023/10/29 06:30:37;;;;;;;17.90;17.00;;;;;;;;;;5053050;28;20457;-90
2023/10/29 06:33:05;;;;;;;18.20;17.30;;;;;;;;;;5052836;28;20923;-90
2023/10/29 06:35:32;;;;;;;18.53;17.63;;;;;;;;;;5053405;28;20453;-90
2023/10/29 06:37:59;;;;;;;17.90;17.10;;;;;;;;;;5053552;28;20478;-90
2023/10/29 06:40:27;;;;;;;18.10;16.80;;;;;;;;;;5053536;28;20458;-91
2023/10/29 06:42:54;;;;;;;17.97;17.07;;;;;;;;;;5053252;28;20473;-89
2023/10/29 06:45:21;;;;;;;17.60;16.80;;;;;;;;;;5052656;28;20479;-90
2023/10/29 06:47:48;;;;;;;17.50;16.60;;;;;;;;;;5053337;28;20441;-90
2023/10/29 06:50:16;;;;;;;17.30;16.50;;;;;;;;;;5052868;28;20462;-90
2023/10/29 06:52:43;;;;;;;17.13;16.20;;;;;;;;;;5053460;28;20470;-90
2023/10/29 06:55:10;;;;;;;16.10;15.40;;;;;;;;;;5053826;28;20450;-89
2023/10/29 06:57:38;;;;;;;16.00;15.30;;;;;;;;;;5053181;28;20474;-90
2023/10/29 07:00:07;;;;;;;17.17;16.17;;;;;;;;;;5053162;28;20453;-89
2023/10/29 07:02:35;;;;;;;16.87;16.00;;;;;;;;;;5052895;28;20500;-90
2023/10/29 07:05:02;;;;;;;17.20;16.20;;;;;;;;;;5052788;28;20425;-90
2023/10/29 07:07:29;;;;;;;16.43;15.30;;;;;;;;;;5053024;28;20479;-90
2023/10/29 07:09:57;;;;;;;15.97;15.00;;;;;;;;;;5053424;28;20446;-90
2023/10/29 07:12:24;;;;;;;15.60;15.00;;;;;;;;;;5053244;28;20593;-89
2023/10/29 07:14:52;;;;;;;15.37;14.67;;;;;;;;;;5052609;28;20471;-90
2023/10/29 07:17:19;;;;;;;16.57;15.77;;;;;;;;;;5060413;28;20537;-87
2023/10/29 07:19:47;;;;;;;16.17;15.23;;;;;;;;;;5064429;28;20435;-87
2023/10/29 07:22:14;;;;;;;16.23;15.53;;;;;;;;;;5063448;28;20701;-87
2023/10/29 07:24:42;;;;;;;15.83;14.93;;;;;;;;;;5063127;28;20425;-86
2023/10/29 07:27:09;;;;;;;16.00;14.93;;;;;;;;;;5064557;28;20508;-87
2023/10/29 07:29:36;;;;;;;15.53;14.83;;;;;;;;;;5064009;28;20447;-87
2023/10/29 07:32:04;;;;;;;15.93;15.13;;;;;;;;;;5063886;28;20926;-86
2023/10/29 07:34:31;;;;;;;15.43;14.83;;;;;;;;;;5063464;28;20901;-85
2023/10/29 07:36:58;;;;;;;15.73;14.97;;;;;;;;;;5063648;28;20924;-87
2023/10/29 07:39:26;;;;;;;15.87;15.07;;;;;;;;;;5063334;28;20451;-86
2023/10/29 07:41:53;;;;;;;16.63;15.83;;;;;;;;;;5064109;28;20478;-87
2023/10/29 07:44:20;;;;;;;16.07;15.37;;;;;;;;;;5063847;28;20462;-86
2023/10/29 07:46:48;;;;;;;16.40;15.60;;;;;;;;;;5064031;28;20475;-87
2023/10/29 07:49:16;;;;;;;15.87;15.07;;;;;;;;;;5064217;28;20429;-86
2023/10/29 07:51:43;;;;;;;15.10;14.50;;;;;;;;;;5063964;28;20486;-87
2023/10/29 07:54:10;;;;;;;16.20;15.50;;;;;;;;;;5064613;28;20518;-87
2023/10/29 07:56:37;;;;;;;16.03;15.33;;;;;;;;;;5064077;28;20947;-87
2023/10/29 07:59:04;;;;;;;15.70;15.00;;;;;;;;;;5064175;28;21061;-86
2023/10/29 08:01:31;;;;;;;16.80;16.00;;;;;;;;;;5064726;28;20874;-86
2023/10/29 08:03:58;;;;;;;16.90;15.80;;;;;;;;;;5063898;28;20474;-87
2023/10/29 08:06:27;;;;;;;16.73;15.73;;;;;;;;;;5064156;28;20963;-87
2023/10/29 08:08:54;;;;;;;16.90;15.90;;;;;;;;;;5063973;28;20478;-87
2023/10/29 08:11:22;;;;;;;17.33;16.00;;;;;;;;;;5062845;28;20807;-87
2023/10/29 08:13:50;;;;;;;16.30;15.50;;;;;;;;;;5063060;28;20461;-87
2023/10/29 08:16:18;;;;;;;16.70;15.90;;;;;;;;;;5063149;28;20520;-87
2023/10/29 08:18:45;;;;;;;16.00;15.30;;;;;;;;;;5063251;28;20483;-86
2023/10/29 08:21:12;;;;;;;16.43;15.63;;;;;;;;;;5062916;28;20462;-88
2023/10/29 08:23:41;;;;;;;17.07;16.17;;;;;;;;;;5061187;28;20486;-87
2023/10/29 08:26:08;;;;;;;16.77;15.97;;;;;;;;;;5061621;28;20446;-87
2023/10/29 08:28:36;;;;;;;16.60;15.70;;;;;;;;;;5062359;28;20450;-87
2023/10/29 08:31:04;;;;;;;16.77;15.97;;;;;;;;;;5063056;28;20420;-86
2023/10/29 08:33:32;;;;;;;17.00;16.10;;;;;;;;;;5062162;28;20451;-87
2023/10/29 08:35:59;;;;;;;16.70;15.90;;;;;;;;;;5060048;28;20848;-86
2023/10/29 08:38:26;;;;;;;16.33;15.63;;;;;;;;;;5061247;28;20982;-87
2023/10/29 08:40:54;;;;;;;16.60;15.80;;;;;;;;;;5064347;28;20776;-87
2023/10/29 08:43:21;;;;;;;17.27;16.33;;;;;;;;;;5063502;28;20493;-86
2023/10/29 08:45:48;;;;;;;16.47;15.67;;;;;;;;;;5072210;28;20446;-85
2023/10/29 08:48:19;;;;;;;16.23;15.33;;;;;;;;;;5066838;28;20461;-88
2023/10/29 08:50:47;;;;;;;16.13;15.33;;;;;;;;;;5072411;28;20489;-86
2023/10/29 08:53:14;;;;;;;17.00;16.20;;;;;;;;;;5068092;28;20458;-82
2023/10/29 08:55:41;;;;;;;16.63;15.73;;;;;;;;;;5058184;28;20419;-82
2023/10/29 08:58:11;;;;;;;17.00;16.20;;;;;;;;;;5061593;28;20534;-81
2023/10/29 09:00:40;;;;;;;17.60;16.80;;;;;;;;;;5058563;28;20441;-87
2023/10/29 09:03:07;;;;;;;17.10;16.30;;;;;;;;;;5060764;28;20497;-86
2023/10/29 09:05:35;;;;;;;17.80;16.73;;;;;;;;;;5061637;28;20482;-85
2023/10/29 09:08:02;;;;;;;16.70;16.00;;;;;;;;;;5063011;28;20533;-87
2023/10/29 09:10:30;;;;;;;17.20;16.40;;;;;;;;;;5062150;28;20443;-85
2023/10/29 09:12:57;;;;;;;17.57;16.67;;;;;;;;;;5061736;28;20431;-85
2023/10/29 09:15:25;;;;;;;17.47;16.67;;;;;;;;;;5062278;28;20473;-86
2023/10/29 09:17:52;;;;;;;17.30;16.50;;;;;;;;;;5062754;28;20478;-85
2023/10/29 09:20:20;;;;;;;17.13;16.33;;;;;;;;;;5062711;28;20434;-85
2023/10/29 09:22:47;;;;;;;18.10;17.20;;;;;;;;;;5062084;28;20525;-85
2023/10/29 09:25:14;;;;;;;16.80;16.10;;;;;;;;;;5061310;28;20785;-85
2023/10/29 09:27:42;;;;;;;18.20;17.40;;;;;;;;;;5061723;28;20477;-86
2023/10/29 09:30:09;;;;;;;18.33;17.30;;;;;;;;;;5060305;28;20459;-86
2023/10/29 09:32:38;;;;;;;17.97;16.87;;;;;;;;;;5059822;28;20473;-85
2023/10/29 09:35:05;;;;;;;17.47;16.57;;;;;;;;;;5060271;28;20486;-85
2023/10/29 09:37:34;;;;;;;17.83;16.40;;;;;;;;;;5059948;28;20470;-86
2023/10/29 09:40:02;;;;;;;16.93;15.80;;;;;;;;;;5059580;28;20454;-85
2023/10/29 09:42:30;;;;;;;17.00;15.90;;;;;;;;;;5060180;28;20514;-86
2023/10/29 09:44:59;;;;;;;18.23;17.23;;;;;;;;;;5061795;28;20450;-86
2023/10/29 09:47:28;;;;;;;17.43;16.53;;;;;;;;;;5061867;28;21020;-85
2023/10/29 09:49:56;;;;;;;16.70;15.90;;;;;;;;;;5061641;28;20447;-85
2023/10/29 09:52:28;;;;;;;18.77;17.53;;;;;;;;;;5061309;28;20470;-86
2023/10/29 09:54:58;;;;;;;17.67;16.77;;;;;;;;;;5060131;28;20435;-86
2023/10/29 09:57:25;;;;;;;19.10;18.00;;;;;;;;;;5060316;28;20847;-86
2023/10/29 09:59:52;;;;;;;18.17;17.27;;;;;;;;;;5061318;28;20447;-85
2023/10/29 10:02:19;;;;;;;18.87;17.77;;;;;;;;;;5060690;28;20451;-85
2023/10/29 10:04:46;;;;;;;17.20;16.30;;;;;;;;;;5060575;28;20477;-86
2023/10/29 10:07:15;;;;;;;17.10;16.30;;;;;;;;;;5060231;28;20490;-85
2023/10/29 10:09:51;;;;;;;17.20;16.30;;;;;;;;;;5059588;28;20838;-86
2023/10/29 10:12:19;;;;;;;17.40;16.30;;;;;;;;;;5065844;28;20462;-87
2023/10/29 10:14:46;;;;;;;17.43;16.53;;;;;;;;;;5060467;28;20462;-87
2023/10/29 10:17:14;;;;;;;17.43;16.47;;;;;;;;;;5067812;28;20497;-87
2023/10/29 10:19:41;;;;;;;18.30;17.40;;;;;;;;;;5068122;28;20454;-79
2023/10/29 10:22:08;;;;;;;18.00;16.70;;;;;;;;;;5054124;28;20459;-78
2023/10/29 10:24:43;;;;;;;21.60;20.20;;;;;;;;;;5054302;28;20907;-77
2023/10/29 10:27:11;;;;;;;17.40;16.60;;;;;;;;;;5058322;28;20474;-84
2023/10/29 10:29:38;;;;;;;19.20;17.13;;;;;;;;;;5054891;28;20454;-81
2023/10/29 10:32:06;;;;;;;17.63;16.83;;;;;;;;;;5054093;28;20450;-80
2023/10/29 10:34:37;;;;;;;18.50;17.50;;;;;;;;;;5052151;28;20986;-75
2023/10/29 10:37:04;;;;;;;17.93;16.93;;;;;;;;;;5052639;28;20458;-77
2023/10/29 10:39:32;;;;;;;17.63;16.83;;;;;;;;;;5050954;28;20451;-78
2023/10/29 10:42:02;;;;;;;17.40;16.50;;;;;;;;;;5054987;28;21011;-79
2023/10/29 10:44:30;;;;;;;18.10;16.93;;;;;;;;;;5051877;28;20573;-77
2023/10/29 10:46:58;;;;;;;17.47;16.57;;;;;;;;;;5056162;28;20502;-83
2023/10/29 10:49:25;;;;;;;17.10;16.30;;;;;;;;;;5057080;28;20458;-83
2023/10/29 10:51:54;;;;;;;18.57;17.67;;;;;;;;;;5059893;28;20458;-83
2023/10/29 10:54:21;;;;;;;18.20;17.20;;;;;;;;;;5060215;28;20525;-84
2023/10/29 10:56:49;;;;;;;17.97;17.07;;;;;;;;;;5059859;28;21157;-87
2023/10/29 10:59:18;;;;;;;17.43;16.63;;;;;;;;;;5058153;28;20455;-81
2023/10/29 11:01:45;;;;;;;17.80;16.70;;;;;;;;;;5055745;28;20477;-79
2023/10/29 11:04:12;;;;;;;18.10;17.20;;;;;;;;;;5054382;28;20577;-79
2023/10/29 11:06:40;;;;;;;18.37;17.20;;;;;;;;;;5055354;28;20432;-79
2023/10/29 11:09:12;;;;;;;18.53;17.50;;;;;;;;;;5057915;28;20450;-85
2023/10/29 11:11:42;;;;;;;18.03;17.03;;;;;;;;;;5061282;28;20535;-82
2023/10/29 11:14:10;;;;;;;17.77;16.83;;;;;;;;;;5056968;28;20485;-79
2023/10/29 11:16:53;;;;;;;19.07;17.70;;;;;;;;;;5060608;28;20449;-87
2023/10/29 11:19:43;;;;;;;18.07;17.03;;;;;;;;;;5065006;28;20488;-82
2023/10/29 11:22:17;;;;;;;18.20;17.20;;;;;;;;;;5077343;28;20460;-87
2023/10/29 11:24:44;;;;;;;19.33;18.33;;;;;;;;;;5083053;28;20508;-83
2023/10/29 11:27:30;;;;;;;18.40;17.50;;;;;;;;;;5085053;28;20477;-84
2023/10/29 11:30:10;;;;;;;17.87;16.87;;;;;;;;;;5083883;28;20426;-84
2023/10/29 11:32:38;;;;;;;18.00;17.10;;;;;;;;;;5081236;28;20437;-84
2023/10/29 11:35:23;;;;;;;17.77;16.77;;;;;;;;;;5082490;28;20453;-84
2023/10/29 11:37:52;;;;;;;18.40;17.40;;;;;;;;;;5067206;28;21320;-82
2023/10/29 11:40:38;;;;;;;17.90;17.00;;;;;;;;;;5059442;28;20458;-83
2023/10/29 11:43:18;;;;;;;17.90;17.00;;;;;;;;;;5063232;28;20487;-83
2023/10/29 11:45:56;;;;;;;17.80;16.90;;;;;;;;;;5058671;28;20935;-84
2023/10/29 11:48:23;;;;;;;18.67;17.73;;;;;;;;;;5058749;28;20492;-83
2023/10/29 11:51:11;;;;;;;19.27;18.27;;;;;;;;;;5059874;28;20469;-85
2023/10/29 11:53:40;;;;;;;18.97;17.97;;;;;;;;;;5059598;28;20431;-84
2023/10/29 11:56:09;;;;;;;18.17;17.27;;;;;;;;;;5062560;28;20465;-85
2023/10/29 11:58:37;;;;;;;18.67;17.67;;;;;;;;;;5073313;28;20563;-83
2023/10/29 12:01:04;;;;;;;18.97;17.97;;;;;;;;;;5062227;28;20482;-84
2023/10/29 12:03:32;;;;;;;20.10;18.90;;;;;;;;;;5063210;28;20484;-83
2023/10/29 12:05:59;;;;;;;18.47;17.47;;;;;;;;;;5061735;28;20469;-83
2023/10/29 12:08:27;;;;;;;19.17;18.17;;;;;;;;;;5063076;28;20873;-84
2023/10/29 12:10:56;;;;;;;18.40;17.40;;;;;;;;;;5062885;28;20520;-84
2023/10/29 12:13:22;;;;;;;19.93;18.73;;;;;;;;;;5063180;28;20424;-85
2023/10/29 12:15:55;;;;;;;18.50;17.50;;;;;;;;;;5062200;28;21041;-85
2023/10/29 12:18:23;;;;;;;19.60;18.60;;;;;;;;;;5063615;28;20477;-84
2023/10/29 12:20:50;;;;;;;18.63;17.73;;;;;;;;;;5079855;28;20469;-81
2023/10/29 12:23:18;;;;;;;20.10;18.90;;;;;;;;;;5061501;28;20490;-86
2023/10/29 12:25:45;;;;;;;18.33;17.37;;;;;;;;;;5059495;28;20997;-86
2023/10/29 12:28:14;;;;;;;18.27;17.37;;;;;;;;;;5076602;28;20481;-87
2023/10/29 12:30:41;;;;;;;18.67;17.50;;;;;;;;;;5080137;28;20453;-86
2023/10/29 12:33:21;;;;;;;17.70;16.70;;;;;;;;;;5080609;28;20961;-85
2023/10/29 12:35:49;;;;;;;18.47;17.17;;;;;;;;;;5080610;28;20489;-84
2023/10/29 12:38:16;;;;;;;18.07;17.07;;;;;;;;;;5080360;28;20489;-83
2023/10/29 12:41:04;;;;;;;18.33;17.40;;;;;;;;;;5081118;28;20453;-83
2023/10/29 12:43:36;;;;;;;18.87;17.60;;;;;;;;;;5075188;28;20924;-84
2023/10/29 12:46:05;;;;;;;18.33;17.43;;;;;;;;;;5081585;28;20942;-82
2023/10/29 12:48:32;;;;;;;18.80;17.60;;;;;;;;;;5080657;28;21021;-82
2023/10/29 12:51:00;;;;;;;18.20;17.30;;;;;;;;;;5081764;28;20520;-82
2023/10/29 12:53:28;;;;;;;18.70;17.80;;;;;;;;;;5081576;28;20537;-82
2023/10/29 12:55:55;;;;;;;18.90;17.90;;;;;;;;;;5080676;28;20562;-82
2023/10/29 12:58:22;;;;;;;18.23;17.20;;;;;;;;;;5081841;28;20470;-83
2023/10/29 13:00:52;;;;;;;17.80;16.90;;;;;;;;;;5081915;28;20445;-83
2023/10/29 13:03:19;;;;;;;18.57;17.47;;;;;;;;;;5081279;28;20922;-81
2023/10/29 13:05:46;;;;;;;18.43;17.33;;;;;;;;;;5081169;28;20513;-82
2023/10/29 13:08:14;;;;;;;18.17;17.17;;;;;;;;;;5080620;28;21001;-83
2023/10/29 13:10:44;;;;;;;18.73;17.50;;;;;;;;;;5080995;28;20487;-82
2023/10/29 13:13:11;;;;;;;17.70;16.70;;;;;;;;;;5081243;28;20757;-82
2023/10/29 13:15:38;;;;;;;18.03;16.93;;;;;;;;;;5079507;28;20446;-82
2023/10/29 13:18:06;;;;;;;18.13;17.23;;;;;;;;;;5081744;28;20457;-82
2023/10/29 13:20:34;;;;;;;18.40;17.40;;;;;;;;;;5081620;28;20438;-82
2023/10/29 13:23:01;;;;;;;18.17;17.27;;;;;;;;;;5080539;28;20449;-82
2023/10/29 13:25:28;;;;;;;18.83;17.70;;;;;;;;;;5080289;28;21031;-83
2023/10/29 13:27:55;;;;;;;19.20;18.20;;;;;;;;;;5080255;28;20458;-81
2023/10/29 13:30:22;;;;;;;21.70;20.40;;;;;;;;;;5080243;28;20446;-82
2023/10/29 13:32:49;;;;;;;18.77;17.77;;;;;;;;;;5080644;28;20472;-81
2023/10/29 13:35:18;;;;;;;18.13;17.13;;;;;;;;;;5079114;28;20472;-83
2023/10/29 13:37:45;;;;;;;18.00;17.10;;;;;;;;;;5081561;28;20462;-83
2023/10/29 13:40:12;;;;;;;19.30;18.30;;;;;;;;;;5080870;28;20444;-84
2023/10/29 13:42:39;;;;;;;18.93;17.83;;;;;;;;;;5080716;28;20974;-82
2023/10/29 13:45:07;;;;;;;18.47;17.47;;;;;;;;;;5079660;28;20496;-84
2023/10/29 13:47:34;;;;;;;18.27;17.27;;;;;;;;;;5078009;28;20596;-85
2023/10/29 13:50:01;;;;;;;18.27;17.27;;;;;;;;;;5079016;28;20847;-86
2023/10/29 13:52:30;;;;;;;18.37;17.47;;;;;;;;;;5079169;28;20446;-84
2023/10/29 13:54:57;;;;;;;18.40;17.13;;;;;;;;;;5077990;28;20465;-84
2023/10/29 13:57:24;;;;;;;20.33;17.37;;;;;;;;;;5078731;28;20489;-84
2023/10/29 13:59:51;;;;;;;18.00;16.90;;;;;;;;;;5078228;28;20445;-85
2023/10/29 14:02:18;;;;;;;18.57;17.30;;;;;;;;;;5077553;28;20438;-83
2023/10/29 14:04:45;;;;;;;18.10;17.00;;;;;;;;;;5079732;28;20989;-81
2023/10/29 14:07:12;;;;;;;18.40;17.40;;;;;;;;;;5080272;28;20436;-81
2023/10/29 14:09:42;;;;;;;17.60;16.70;;;;;;;;;;5079877;28;20449;-82
2023/10/29 14:12:09;;;;;;;17.40;16.40;;;;;;;;;;5079389;28;20457;-82
2023/10/29 14:14:36;;;;;;;17.43;16.53;;;;;;;;;;5079153;28;20466;-81
2023/10/29 14:17:06;;;;;;;17.93;17.03;;;;;;;;;;5079875;28;21012;-82
2023/10/29 14:19:33;;;;;;;18.30;17.10;;;;;;;;;;5080996;28;20469;-82
2023/10/29 14:22:00;;;;;;;17.27;16.47;;;;;;;;;;5081472;28;20457;-83
2023/10/29 14:24:29;;;;;;;17.30;16.30;;;;;;;;;;5080613;28;20985;-83